createdAt,value
2018-12-18T00:00:49.638Z,101331.56
2018-12-18T00:03:17.873Z,101329.69
2018-12-18T00:05:45.990Z,101327.88
2018-12-18T00:08:14.179Z,101339.08
2018-12-18T00:10:51.879Z,101331.70
2018-12-18T00:13:20.090Z,101335.03
2018-12-18T00:15:48.393Z,101329.84
2018-12-18T00:18:16.548Z,101331.52
2018-12-18T00:20:44.722Z,101328.34
2018-12-18T00:23:12.869Z,101330.20
2018-12-18T00:25:41.001Z,101327.72
2018-12-18T00:28:09.285Z,101331.35
2018-12-18T00:30:38.134Z,101327.20
2018-12-18T00:33:06.134Z,101335.52
2018-12-18T00:35:34.251Z,101341.28
2018-12-18T00:38:02.482Z,101340.12
2018-12-18T00:40:30.641Z,101336.26
2018-12-18T00:42:58.799Z,101343.48
2018-12-18T00:45:33.890Z,101348.15
2018-12-18T00:48:02.239Z,101345.52
2018-12-18T00:50:30.363Z,101340.62
2018-12-18T00:52:58.501Z,101345.96
2018-12-18T00:55:26.607Z,101339.12
2018-12-18T00:57:54.951Z,101339.45
2018-12-18T01:00:23.389Z,101343.83
2018-12-18T01:02:54.764Z,101338.16
2018-12-18T01:05:23.158Z,101345.84
2018-12-18T01:07:53.474Z,101340.02
2018-12-18T01:10:21.642Z,101336.50
2018-12-18T01:12:49.847Z,101339.50
2018-12-18T01:15:18.164Z,101344.20
2018-12-18T01:17:46.323Z,101344.72
2018-12-18T01:20:14.804Z,101343.55
2018-12-18T01:22:42.918Z,101340.15
2018-12-18T01:25:11.089Z,101347.53
2018-12-18T01:27:39.258Z,101345.06
2018-12-18T01:30:07.636Z,101343.70
2018-12-18T01:32:35.720Z,101345.86
2018-12-18T01:35:04.843Z,101351.21
2018-12-18T01:37:32.999Z,101355.91
2018-12-18T01:40:01.287Z,101354.41
2018-12-18T01:42:29.429Z,101352.39
2018-12-18T01:44:57.525Z,101360.25
2018-12-18T01:47:25.726Z,101350.07
2018-12-18T01:49:54.128Z,101354.09
2018-12-18T01:52:22.299Z,101349.38
2018-12-18T01:54:50.447Z,101355.55
2018-12-18T01:57:18.597Z,101354.55
2018-12-18T01:59:47.165Z,101356.03
2018-12-18T02:02:16.261Z,101362.57
2018-12-18T02:04:44.600Z,101361.89
2018-12-18T02:07:12.810Z,101362.20
2018-12-18T02:09:41.109Z,101366.73
2018-12-18T02:12:09.403Z,101372.08
2018-12-18T02:14:37.651Z,101370.74
2018-12-18T02:17:06.155Z,101383.16
2018-12-18T02:19:34.304Z,101386.33
2018-12-18T02:22:02.466Z,101381.30
2018-12-18T02:24:30.830Z,101382.14
2018-12-18T02:26:58.945Z,101377.97
2018-12-18T02:29:27.368Z,101374.59
2018-12-18T02:31:55.469Z,101375.28
2018-12-18T02:34:23.864Z,101374.92
2018-12-18T02:36:52.055Z,101373.59
2018-12-18T02:39:20.419Z,101372.04
2018-12-18T02:41:48.816Z,101371.03
2018-12-18T02:44:16.986Z,101377.03
2018-12-18T02:46:45.330Z,101378.89
2018-12-18T02:49:14.118Z,101373.84
2018-12-18T02:51:42.470Z,101376.73
2018-12-18T02:54:10.780Z,101372.53
2018-12-18T02:56:39.132Z,101369.41
2018-12-18T02:59:07.370Z,101368.56
2018-12-18T03:01:35.582Z,101374.05
2018-12-18T03:04:03.898Z,101369.53
2018-12-18T03:06:32.108Z,101374.72
2018-12-18T03:09:00.294Z,101375.07
2018-12-18T03:11:28.661Z,101368.55
2018-12-18T03:13:56.780Z,101366.50
2018-12-18T03:16:25.155Z,101364.64
2018-12-18T03:18:53.300Z,101364.16
2018-12-18T03:21:21.448Z,101366.69
2018-12-18T03:23:49.683Z,101364.45
2018-12-18T03:26:18.068Z,101366.66
2018-12-18T03:28:48.161Z,101372.88
2018-12-18T03:31:16.878Z,101369.72
2018-12-18T03:33:45.088Z,101376.22
2018-12-18T03:36:19.989Z,101374.95
2018-12-18T03:38:48.250Z,101376.92
2018-12-18T03:41:16.730Z,101377.79
2018-12-18T03:43:45.006Z,101372.25
2018-12-18T03:46:13.310Z,101381.12
2018-12-18T03:48:41.441Z,101380.30
2018-12-18T03:51:10.524Z,101377.62
2018-12-18T03:53:38.649Z,101379.95
2018-12-18T03:56:06.873Z,101378.77
2018-12-18T03:58:35.053Z,101381.78
2018-12-18T04:01:03.409Z,101387.97
2018-12-18T04:03:31.520Z,101390.30
2018-12-18T04:05:59.961Z,101386.28
2018-12-18T04:08:29.873Z,101380.61
2018-12-18T04:10:58.279Z,101381.91
2018-12-18T04:13:26.607Z,101377.44
2018-12-18T04:15:54.909Z,101380.39
2018-12-18T04:18:23.187Z,101378.08
2018-12-18T04:20:51.307Z,101383.91
2018-12-18T04:23:19.377Z,101383.55
2018-12-18T04:25:47.858Z,101385.30
2018-12-18T04:28:16.306Z,101386.13
2018-12-18T04:30:44.616Z,101391.94
2018-12-18T04:33:12.708Z,101391.12
2018-12-18T04:35:41.016Z,101388.96
2018-12-18T04:38:09.177Z,101387.45
2018-12-18T04:40:37.390Z,101392.09
2018-12-18T04:43:05.695Z,101393.14
2018-12-18T04:45:33.800Z,101391.75
2018-12-18T04:48:02.154Z,101390.22
2018-12-18T04:50:30.365Z,101396.94
2018-12-18T04:52:58.462Z,101392.05
2018-12-18T04:55:26.614Z,101397.66
2018-12-18T04:57:54.755Z,101403.73
2018-12-18T05:00:22.895Z,101401.73
2018-12-18T05:02:57.881Z,101402.36
2018-12-18T05:05:26.035Z,101401.41
2018-12-18T05:07:54.158Z,101408.39
2018-12-18T05:10:22.301Z,101404.05
2018-12-18T05:12:50.612Z,101406.20
2018-12-18T05:15:18.681Z,101410.76
2018-12-18T05:17:46.990Z,101409.81
2018-12-18T05:20:15.174Z,101404.41
2018-12-18T05:22:43.307Z,101406.75
2018-12-18T05:25:12.130Z,101415.41
2018-12-18T05:27:40.468Z,101418.30
2018-12-18T05:30:08.930Z,101416.83
2018-12-18T05:32:37.146Z,101418.89
2018-12-18T05:35:05.424Z,101414.20
2018-12-18T05:37:33.533Z,101417.36
2018-12-18T05:40:01.687Z,101409.70
2018-12-18T05:42:30.013Z,101420.52
2018-12-18T05:44:58.142Z,101416.50
2018-12-18T05:47:26.826Z,101429.06
2018-12-18T05:49:55.000Z,101426.96
2018-12-18T05:52:23.143Z,101424.90
2018-12-18T05:54:51.480Z,101427.09
2018-12-18T05:57:19.695Z,101428.42
2018-12-18T05:59:48.008Z,101431.30
2018-12-18T06:02:16.391Z,101432.79
2018-12-18T06:04:44.816Z,101433.64
2018-12-18T06:07:13.513Z,101440.45
2018-12-18T06:09:41.629Z,101445.38
2018-12-18T06:12:09.904Z,101437.17
2018-12-18T06:14:38.007Z,101449.92
2018-12-18T06:17:06.140Z,101443.20
2018-12-18T06:19:34.187Z,101451.94
2018-12-18T06:22:02.456Z,101450.25
2018-12-18T06:24:30.582Z,101459.36
2018-12-18T06:26:58.769Z,101454.34
2018-12-18T06:29:27.233Z,101455.88
2018-12-18T06:34:41.032Z,101453.77
2018-12-18T06:37:09.163Z,101451.35
2018-12-18T06:39:38.379Z,101472.20
2018-12-18T06:42:06.533Z,101472.73
2018-12-18T06:44:34.722Z,101477.92
2018-12-18T06:47:02.923Z,101481.28
2018-12-18T06:49:31.432Z,101478.53
2018-12-18T06:51:59.538Z,101482.95
2018-12-18T06:54:28.692Z,101483.50
2018-12-18T06:56:56.872Z,101481.37
2018-12-18T06:59:25.199Z,101484.11
2018-12-18T07:01:53.296Z,101482.15
2018-12-18T07:04:22.632Z,101480.28
2018-12-18T07:06:51.004Z,101474.67
2018-12-18T07:09:19.438Z,101480.91
2018-12-18T07:11:47.637Z,101473.48
2018-12-18T07:14:15.786Z,101477.34
2018-12-18T07:16:43.968Z,101489.18
2018-12-18T07:19:12.071Z,101484.56
2018-12-18T07:21:41.419Z,101481.88
2018-12-18T07:24:14.077Z,101482.05
2018-12-18T07:26:39.758Z,101481.32
2018-12-18T07:29:08.070Z,101483.99
2018-12-18T07:31:36.199Z,101488.77
2018-12-18T07:34:04.446Z,101485.56
2018-12-18T07:36:32.605Z,101486.78
2018-12-18T07:39:00.690Z,101490.27
2018-12-18T07:41:28.893Z,101488.25
2018-12-18T07:43:57.037Z,101489.20
2018-12-18T07:46:25.219Z,101478.08
2018-12-18T07:48:53.840Z,101479.64
2018-12-18T07:51:22.084Z,101471.68
2018-12-18T07:53:50.207Z,101482.95
2018-12-18T07:56:18.309Z,101484.59
2018-12-18T07:58:46.534Z,101480.44
2018-12-18T08:01:14.735Z,101476.38
2018-12-18T08:03:42.872Z,101483.27
2018-12-18T08:06:11.025Z,101489.19
2018-12-18T08:08:39.143Z,101481.36
2018-12-18T08:11:07.851Z,101477.42
2018-12-18T08:13:35.981Z,101486.91
2018-12-18T08:16:04.384Z,101485.21
2018-12-18T08:18:32.562Z,101489.83
2018-12-18T08:21:00.826Z,101493.31
2018-12-18T08:23:29.017Z,101494.32
2018-12-18T08:25:57.277Z,101486.78
2018-12-18T08:28:25.407Z,101491.77
2018-12-18T08:30:53.714Z,101497.16
2018-12-18T08:33:21.822Z,101500.36
2018-12-18T08:35:50.191Z,101499.34
2018-12-18T08:38:18.336Z,101495.40
2018-12-18T08:40:46.459Z,101505.25
2018-12-18T08:43:14.666Z,101493.95
2018-12-18T08:45:42.985Z,101497.59
2018-12-18T08:48:11.118Z,101495.07
2018-12-18T08:50:40.134Z,101502.45
2018-12-18T08:53:08.360Z,101499.77
2018-12-18T08:55:36.779Z,101507.64
2018-12-18T08:58:04.943Z,101504.60
2018-12-18T09:00:33.402Z,101502.28
2018-12-18T09:03:01.534Z,101497.48
2018-12-18T09:05:29.957Z,101506.79
2018-12-18T09:07:58.038Z,101508.89
2018-12-18T09:10:26.246Z,101511.44
2018-12-18T09:12:55.169Z,101513.97
2018-12-18T09:15:28.930Z,101516.86
2018-12-18T09:17:57.144Z,101519.66
2018-12-18T09:20:25.440Z,101515.88
2018-12-18T09:22:53.582Z,101519.70
2018-12-18T09:25:22.184Z,101513.49
2018-12-18T09:27:50.422Z,101513.48
2018-12-18T09:30:18.576Z,101510.52
2018-12-18T09:32:46.898Z,101512.86
2018-12-18T09:35:15.054Z,101512.55
2018-12-18T09:37:43.248Z,101517.45
2018-12-18T09:40:11.479Z,101509.88
2018-12-18T09:42:45.528Z,101500.50
2018-12-18T09:45:13.890Z,101504.05
2018-12-18T09:47:42.038Z,101503.70
2018-12-18T09:50:10.641Z,101499.03
2018-12-18T09:52:38.720Z,101490.49
2018-12-18T09:55:08.072Z,101490.30
2018-12-18T09:57:42.440Z,101492.67
2018-12-18T10:00:11.118Z,101497.20
2018-12-18T10:02:39.304Z,101497.19
2018-12-18T10:05:07.454Z,101497.84
2018-12-18T10:07:35.548Z,101489.12
2018-12-18T10:10:04.519Z,101493.30
2018-12-18T10:12:38.287Z,101488.24
2018-12-18T10:15:07.002Z,101489.93
2018-12-18T10:17:36.221Z,101488.24
2018-12-18T10:20:05.504Z,101482.31
2018-12-18T10:22:33.657Z,101484.46
2018-12-18T10:25:01.795Z,101483.94
2018-12-18T10:27:30.164Z,101478.73
2018-12-18T10:29:58.568Z,101478.14
2018-12-18T10:32:26.934Z,101471.48
2018-12-18T10:34:55.085Z,101464.59
2018-12-18T10:37:24.042Z,101463.61
2018-12-18T10:39:52.572Z,101457.08
2018-12-18T10:42:20.945Z,101461.77
2018-12-18T10:44:49.059Z,101456.30
2018-12-18T10:47:17.273Z,101452.05
2018-12-18T10:49:45.477Z,101446.59
2018-12-18T10:52:14.433Z,101439.87
2018-12-18T10:54:42.787Z,101424.77
2018-12-18T10:57:11.157Z,101437.85
2018-12-18T10:59:39.574Z,101430.70
2018-12-18T11:02:08.557Z,101423.95
2018-12-18T11:04:36.812Z,101421.19
2018-12-18T11:07:05.841Z,101414.04
2018-12-18T11:09:34.075Z,101414.13
2018-12-18T11:12:02.255Z,101421.03
2018-12-18T11:14:30.596Z,101409.91
2018-12-18T11:16:58.944Z,101412.28
2018-12-18T11:19:27.154Z,101411.16
2018-12-18T11:21:55.563Z,101409.81
2018-12-18T11:24:23.776Z,101408.66
2018-12-18T11:26:52.723Z,101400.08
2018-12-18T11:29:21.387Z,101386.00
2018-12-18T11:31:50.022Z,101380.85
2018-12-18T11:34:18.281Z,101363.92
2018-12-18T11:36:46.699Z,101364.14
2018-12-18T11:39:15.036Z,101361.43
2018-12-18T11:41:43.396Z,101359.00
2018-12-18T11:44:11.715Z,101353.34
2018-12-18T11:46:40.090Z,101347.60
2018-12-18T11:49:08.289Z,101344.11
2018-12-18T11:51:36.653Z,101334.45
2018-12-18T11:54:04.815Z,101332.73
2018-12-18T11:56:33.014Z,101325.88
2018-12-18T11:59:01.310Z,101332.32
2018-12-18T12:01:29.476Z,101326.94
2018-12-18T12:03:57.815Z,101329.05
2018-12-18T12:06:25.903Z,101325.92
2018-12-18T12:08:54.116Z,101332.85
2018-12-18T12:11:22.357Z,101330.38
2018-12-18T12:13:50.630Z,101336.05
2018-12-18T12:16:18.814Z,101335.25
2018-12-18T12:18:47.137Z,101338.36
2018-12-18T12:21:15.296Z,101329.36
2018-12-18T12:23:43.532Z,101332.88
2018-12-18T12:26:17.314Z,101336.25
2018-12-18T12:28:45.669Z,101323.23
2018-12-18T12:31:13.788Z,101325.59
2018-12-18T12:33:41.981Z,101324.00
2018-12-18T12:36:10.337Z,101324.27
2018-12-18T12:38:38.442Z,101319.08
2018-12-18T12:41:06.552Z,101308.48
2018-12-18T12:43:34.891Z,101313.27
2018-12-18T12:46:03.167Z,101310.20
2018-12-18T12:48:36.950Z,101300.20
2018-12-18T12:51:05.232Z,101303.38
2018-12-18T12:53:33.439Z,101305.75
2018-12-18T12:56:01.970Z,101300.09
2018-12-18T12:58:30.304Z,101307.34
2018-12-18T13:00:58.404Z,101301.72
2018-12-18T13:03:26.679Z,101293.14
2018-12-18T13:05:54.960Z,101291.57
2018-12-18T13:08:23.168Z,101290.30
2018-12-18T13:10:51.460Z,101288.11
2018-12-18T13:13:19.560Z,101291.47
2018-12-18T13:15:47.864Z,101289.64
2018-12-18T13:18:16.176Z,101286.70
2018-12-18T13:20:44.490Z,101286.34
2018-12-18T13:23:12.624Z,101281.95
2018-12-18T13:25:41.065Z,101274.39
2018-12-18T13:28:09.555Z,101275.91
2018-12-18T13:30:38.144Z,101274.38
2018-12-18T13:33:06.313Z,101265.95
2018-12-18T13:35:34.552Z,101268.34
2018-12-18T13:38:02.953Z,101265.16
2018-12-18T13:40:32.285Z,101263.63
2018-12-18T13:43:00.972Z,101259.66
2018-12-18T13:45:29.114Z,101258.59
2018-12-18T13:47:57.305Z,101256.89
2018-12-18T13:50:25.410Z,101263.41
2018-12-18T13:52:53.578Z,101251.02
2018-12-18T13:55:21.887Z,101257.11
2018-12-18T13:57:50.096Z,101243.83
2018-12-18T14:00:18.306Z,101243.84
2018-12-18T14:02:46.428Z,101252.24
2018-12-18T14:05:14.558Z,101247.37
2018-12-18T14:07:42.680Z,101241.69
2018-12-18T14:10:10.985Z,101246.58
2018-12-18T14:12:39.131Z,101248.39
2018-12-18T14:15:08.020Z,101248.09
2018-12-18T14:17:36.114Z,101247.82
2018-12-18T14:20:05.191Z,101239.59
2018-12-18T14:22:33.282Z,101237.27
2018-12-18T14:25:01.477Z,101233.61
2018-12-18T14:27:29.608Z,101237.64
2018-12-18T14:29:57.737Z,101235.62
2018-12-18T14:32:25.855Z,101240.56
2018-12-18T14:34:54.089Z,101231.36
2018-12-18T14:37:22.298Z,101230.19
2018-12-18T14:39:50.516Z,101226.55
2018-12-18T14:42:18.683Z,101218.02
2018-12-18T14:44:49.681Z,101216.17
2018-12-18T14:47:18.525Z,101225.42
2018-12-18T14:49:46.639Z,101225.06
2018-12-18T14:52:15.448Z,101224.06
2018-12-18T14:54:43.590Z,101233.63
2018-12-18T14:57:11.744Z,101234.62
2018-12-18T14:59:40.048Z,101227.44
2018-12-18T15:02:08.202Z,101227.42
2018-12-18T15:04:36.364Z,101225.77
2018-12-18T15:07:04.493Z,101224.61
2018-12-18T15:09:32.612Z,101215.39
2018-12-18T15:12:00.892Z,101208.36
2018-12-18T15:14:29.023Z,101211.88
2018-12-18T15:16:57.165Z,101217.22
2018-12-18T15:19:25.307Z,101212.21
2018-12-18T15:21:53.405Z,101216.56
2018-12-18T15:24:21.673Z,101208.19
2018-12-18T15:26:49.807Z,101208.84
2018-12-18T15:29:18.077Z,101209.35
2018-12-18T15:31:46.175Z,101209.16
2018-12-18T15:34:14.346Z,101212.50
2018-12-18T15:36:42.517Z,101218.69
2018-12-18T15:39:10.769Z,101215.31
2018-12-18T15:41:38.967Z,101213.49
2018-12-18T15:44:07.153Z,101218.66
2018-12-18T15:46:35.384Z,101220.81
2018-12-18T15:49:03.711Z,101222.12
2018-12-18T15:51:31.851Z,101236.80
2018-12-18T15:53:59.997Z,101238.80
2018-12-18T15:56:28.109Z,101242.77
2018-12-18T15:58:56.487Z,101246.65
2018-12-18T16:01:24.650Z,101246.44
2018-12-18T16:03:52.747Z,101245.67
2018-12-18T16:06:22.352Z,101252.42
2018-12-18T16:08:50.520Z,101244.00
2018-12-18T16:11:18.654Z,101246.50
2018-12-18T16:13:46.819Z,101243.31
2018-12-18T16:16:15.125Z,101246.23
2018-12-18T16:18:43.268Z,101243.51
2018-12-18T16:21:11.432Z,101246.02
2018-12-18T16:23:39.649Z,101243.83
2018-12-18T16:26:07.816Z,101238.19
2018-12-18T16:28:35.978Z,101240.84
2018-12-18T16:31:04.316Z,101238.05
2018-12-18T16:33:32.442Z,101237.37
2018-12-18T16:36:00.612Z,101233.76
2018-12-18T16:38:28.769Z,101234.41
2018-12-18T16:40:57.022Z,101236.89
2018-12-18T16:43:25.252Z,101235.86
2018-12-18T16:45:53.437Z,101233.47
2018-12-18T16:48:21.939Z,101228.64
2018-12-18T16:50:50.362Z,101235.70
2018-12-18T16:53:18.582Z,101226.25
2018-12-18T16:55:46.967Z,101229.06
2018-12-18T16:58:15.141Z,101227.70
2018-12-18T17:00:44.207Z,101231.70
2018-12-18T17:03:12.493Z,101233.51
2018-12-18T17:05:40.764Z,101227.32
2018-12-18T17:08:08.966Z,101227.48
2018-12-18T17:10:37.565Z,101226.66
2018-12-18T17:13:05.818Z,101220.80
2018-12-18T17:15:33.996Z,101227.32
2018-12-18T17:18:02.370Z,101223.80
2018-12-18T17:20:30.537Z,101227.13
2018-12-18T17:22:58.825Z,101238.23
2018-12-18T17:25:27.015Z,101232.23
2018-12-18T17:27:55.246Z,101231.08
2018-12-18T17:30:23.531Z,101240.02
2018-12-18T17:32:51.692Z,101231.52
2018-12-18T17:35:19.898Z,101226.69
2018-12-18T17:37:48.146Z,101230.05
2018-12-18T17:40:17.060Z,101225.16
2018-12-18T17:42:45.231Z,101235.20
2018-12-18T17:45:13.459Z,101230.16
2018-12-18T17:47:41.777Z,101228.16
2018-12-18T17:50:09.931Z,101222.14
2018-12-18T17:52:38.925Z,101218.09
2018-12-18T17:55:07.683Z,101222.11
2018-12-18T17:57:36.058Z,101209.24
2018-12-18T18:00:04.705Z,101210.91
2018-12-18T18:02:32.925Z,101207.25
2018-12-18T18:05:01.110Z,101203.80
2018-12-18T18:07:29.430Z,101202.98
2018-12-18T18:09:57.786Z,101191.59
2018-12-18T18:12:29.885Z,101186.28
2018-12-18T18:14:56.402Z,101190.58
2018-12-18T18:17:24.966Z,101183.87
2018-12-18T18:19:53.455Z,101190.55
2018-12-18T18:22:21.654Z,101194.19
2018-12-18T18:24:49.827Z,101196.24
2018-12-18T18:27:17.966Z,101195.07
2018-12-18T18:29:46.328Z,101194.47
2018-12-18T18:32:14.397Z,101184.84
2018-12-18T18:34:42.796Z,101181.12
2018-12-18T18:37:10.944Z,101184.12
2018-12-18T18:39:39.221Z,101179.43
2018-12-18T18:42:07.378Z,101175.02
2018-12-18T18:44:35.707Z,101175.58
2018-12-18T18:47:03.879Z,101173.23
2018-12-18T18:49:32.207Z,101167.08
2018-12-18T18:52:00.328Z,101165.87
2018-12-18T18:54:28.710Z,101159.37
2018-12-18T18:56:56.822Z,101157.61
2018-12-18T18:59:25.158Z,101163.27
2018-12-18T19:01:53.365Z,101159.59
2018-12-18T19:04:22.014Z,101153.77
2018-12-18T19:06:50.385Z,101156.44
2018-12-18T19:09:18.581Z,101155.42
2018-12-18T19:11:46.755Z,101142.45
2018-12-18T19:14:15.012Z,101134.16
2018-12-18T19:16:43.201Z,101137.45
2018-12-18T19:19:11.513Z,101138.05
2018-12-18T19:21:39.655Z,101135.65
2018-12-18T19:24:07.828Z,101135.91
2018-12-18T19:26:35.974Z,101141.20
2018-12-18T19:29:04.352Z,101143.59
2018-12-18T19:31:32.636Z,101142.42
2018-12-18T19:34:00.833Z,101139.52
2018-12-18T19:36:28.970Z,101140.98
2018-12-18T19:38:57.882Z,101139.79
2018-12-18T19:41:26.222Z,101137.27
2018-12-18T19:43:54.334Z,101135.27
2018-12-18T19:46:22.672Z,101144.28
2018-12-18T19:48:52.080Z,101136.55
2018-12-18T19:51:20.475Z,101134.36
2018-12-18T19:53:48.641Z,101133.59
2018-12-18T19:56:17.033Z,101131.50
2018-12-18T19:58:45.740Z,101124.02
2018-12-18T20:01:14.318Z,101121.69
2018-12-18T20:03:42.471Z,101112.05
2018-12-18T20:06:10.836Z,101121.37
2018-12-18T20:08:39.039Z,101128.30
2018-12-18T20:11:07.368Z,101125.00
2018-12-18T20:13:35.548Z,101126.48
2018-12-18T20:16:03.797Z,101122.40
2018-12-18T20:18:32.158Z,101118.73
2018-12-18T20:21:00.734Z,101120.61
2018-12-18T20:23:29.184Z,101111.81
2018-12-18T20:25:58.011Z,101113.80
2018-12-18T20:28:26.088Z,101107.67
2018-12-18T20:30:54.436Z,101103.53
2018-12-18T20:33:22.595Z,101104.25
2018-12-18T20:35:50.754Z,101109.94
2018-12-18T20:38:18.914Z,101104.61
2018-12-18T20:40:47.096Z,101099.53
2018-12-18T20:43:15.330Z,101100.11
2018-12-18T20:45:43.648Z,101092.97
2018-12-18T20:48:11.729Z,101105.83
2018-12-18T20:53:27.637Z,101087.03
2018-12-18T20:55:55.987Z,101085.83
2018-12-18T20:58:24.119Z,101074.43
2018-12-18T21:00:52.263Z,101073.88
2018-12-18T21:03:20.441Z,101069.34
2018-12-18T21:05:49.817Z,101066.66
2018-12-18T21:08:23.329Z,101065.16
2018-12-18T21:10:48.294Z,101055.66
2018-12-18T21:13:22.165Z,101055.55
2018-12-18T21:15:50.623Z,101052.89
2018-12-18T21:18:18.935Z,101052.42
2018-12-18T21:20:47.328Z,101058.04
2018-12-18T21:23:15.459Z,101048.41
2018-12-18T21:25:43.681Z,101047.55
2018-12-18T21:28:12.085Z,101041.16
2018-12-18T21:30:40.436Z,101040.13
2018-12-18T21:33:08.712Z,101027.19
2018-12-18T21:35:37.203Z,101030.02
2018-12-18T21:38:05.320Z,101023.13
2018-12-18T21:40:33.495Z,101021.42
2018-12-18T21:43:03.151Z,101018.17
2018-12-18T21:45:31.488Z,101028.80
2018-12-18T21:47:59.823Z,101025.01
2018-12-18T21:50:28.154Z,101021.55
2018-12-18T21:52:58.140Z,101021.09
2018-12-18T21:55:26.490Z,101020.62
2018-12-18T21:57:54.889Z,101016.41
2018-12-18T22:00:23.171Z,101011.42
2018-12-18T22:02:51.607Z,101007.33
2018-12-18T22:05:20.152Z,101004.45
2018-12-18T22:07:48.410Z,100997.95
2018-12-18T22:10:16.603Z,100988.13
2018-12-18T22:12:45.462Z,100984.34
2018-12-18T22:15:13.676Z,100980.22
2018-12-18T22:17:42.128Z,100969.43
2018-12-18T22:20:10.330Z,100966.92
2018-12-18T22:22:38.556Z,100961.91
2018-12-18T22:25:06.700Z,100953.44
2018-12-18T22:27:35.202Z,100951.06
2018-12-18T22:30:04.541Z,100948.70
2018-12-18T22:32:32.670Z,100947.94
2018-12-18T22:35:00.976Z,100946.38
2018-12-18T22:37:29.266Z,100948.26
2018-12-18T22:39:57.478Z,100940.63
2018-12-18T22:42:26.654Z,100936.66
2018-12-18T22:44:55.188Z,100935.48
2018-12-18T22:47:23.570Z,100938.11
2018-12-18T22:49:51.742Z,100937.11
2018-12-18T22:52:19.918Z,100934.72
2018-12-18T22:54:48.004Z,100927.70
2018-12-18T22:57:16.264Z,100915.24
2018-12-18T22:59:44.456Z,100916.83
2018-12-18T23:02:15.609Z,100909.42
2018-12-18T23:04:45.186Z,100916.14
2018-12-18T23:07:13.998Z,100922.99
2018-12-18T23:09:42.201Z,100913.37
2018-12-18T23:12:10.448Z,100921.03
2018-12-18T23:14:38.681Z,100908.47
2018-12-18T23:17:06.872Z,100898.36
2018-12-18T23:19:35.044Z,100901.75
2018-12-18T23:22:03.236Z,100897.29
2018-12-18T23:24:31.428Z,100892.39
2018-12-18T23:26:59.591Z,100883.21
2018-12-18T23:29:27.752Z,100877.46
2018-12-18T23:31:55.916Z,100878.05
2018-12-18T23:34:24.259Z,100873.40
2018-12-18T23:36:52.480Z,100867.77
2018-12-18T23:39:20.666Z,100874.19
2018-12-18T23:41:48.804Z,100859.95
2018-12-18T23:44:17.044Z,100847.75
2018-12-18T23:46:45.276Z,100850.73
2018-12-18T23:49:13.638Z,100846.14
2018-12-18T23:51:41.750Z,100836.00
2018-12-18T23:54:09.960Z,100837.95
2018-12-18T23:56:38.154Z,100830.53
2018-12-18T23:59:06.436Z,100819.77
